Time;durP1;ratioP1;P1;durP2;ratioP2;P2;SDS_P1;SDS_P2;PMS_P1;PMS_P2;Temp;Humidity;BMP_temperature;BMP_pressure;BME280_temperature;BME280_humidity;BME280_pressure;Samples;Min_cycle;Max_cycle;Signal;HPM_P1;HPM_P2
2023/08/26 00:00:42;;;;;;;4.27;3.87;;;25.40;99.90;;;;;;5038356;28;20188;-1
2023/08/26 00:03:11;;;;;;;4.33;3.93;;;25.50;99.90;;;;;;5054476;28;20188;-1
2023/08/26 00:05:39;;;;;;;4.37;3.97;;;25.40;99.90;;;;;;5044486;28;20208;-1
2023/08/26 00:08:05;;;;;;;4.53;4.13;;;25.40;99.90;;;;;;5057319;28;20255;-1
2023/08/26 00:10:38;;;;;;;4.47;4.07;;;25.40;99.90;;;;;;5073725;28;20561;-1
2023/08/26 00:13:07;;;;;;;4.93;4.27;;;25.40;99.90;;;;;;5056776;28;20219;-1
2023/08/26 00:15:33;;;;;;;4.40;4.00;;;25.40;99.90;;;;;;5056641;28;20184;0
2023/08/26 00:17:59;;;;;;;4.10;3.70;;;25.40;99.90;;;;;;5040814;28;20189;0
2023/08/26 00:20:24;;;;;;;4.10;3.70;;;25.40;99.90;;;;;;5051682;28;20508;0
2023/08/26 00:22:57;;;;;;;4.17;3.77;;;25.40;99.90;;;;;;5048720;28;20586;0
2023/08/26 00:25:26;;;;;;;4.40;4.00;;;25.40;99.90;;;;;;5055916;28;20190;0
2023/08/26 00:27:51;;;;;;;4.40;3.70;;;25.40;99.90;;;;;;5055532;28;20194;0
2023/08/26 00:30:20;;;;;;;4.97;4.03;;;25.30;99.90;;;;;;5057181;28;20165;0
2023/08/26 00:32:48;;;;;;;4.40;4.00;;;25.40;99.90;;;;;;5073725;28;20177;0
2023/08/26 00:35:17;;;;;;;4.03;3.63;;;25.40;99.90;;;;;;5057160;28;20164;0
2023/08/26 00:37:45;;;;;;;4.47;4.07;;;25.30;99.90;;;;;;5071006;28;20180;0
2023/08/26 00:40:14;;;;;;;3.83;3.53;;;25.30;99.90;;;;;;5043455;28;20204;0
2023/08/26 00:42:48;;;;;;;4.43;3.80;;;25.30;99.90;;;;;;5057071;28;20463;0
2023/08/26 00:45:14;;;;;;;4.10;3.70;;;25.30;99.90;;;;;;5057403;28;20283;0
2023/08/26 00:47:40;;;;;;;6.00;4.17;;;25.30;99.90;;;;;;5056735;28;20255;0
2023/08/26 00:50:09;;;;;;;5.73;4.00;;;25.30;99.90;;;;;;5056265;28;20171;0
2023/08/26 00:52:44;;;;;;;3.87;3.57;;;25.30;99.90;;;;;;5056115;28;20176;0
2023/08/26 00:55:10;;;;;;;3.93;3.53;;;25.30;99.90;;;;;;5072889;28;20511;0
2023/08/26 00:57:39;;;;;;;4.13;3.70;;;25.20;99.90;;;;;;5055821;28;20187;0
2023/08/26 01:00:08;;;;;;;4.30;3.90;;;25.30;99.90;;;;;;5040885;28;20255;0
2023/08/26 01:02:36;;;;;;;4.63;3.87;;;25.30;99.90;;;;;;5053339;28;20168;0
2023/08/26 01:05:05;;;;;;;4.37;3.97;;;25.30;99.90;;;;;;5056733;28;20250;0
2023/08/26 01:07:33;;;;;;;4.40;4.00;;;25.30;99.90;;;;;;5045614;28;20203;0
2023/08/26 01:09:59;;;;;;;4.70;4.10;;;25.30;99.90;;;;;;5056017;28;20171;0
2023/08/26 01:12:44;;;;;;;4.33;3.87;;;25.30;99.90;;;;;;5056374;28;20156;0
2023/08/26 01:15:13;;;;;;;4.10;3.70;;;25.30;99.90;;;;;;5055300;28;20245;0
2023/08/26 01:17:42;;;;;;;4.03;3.63;;;25.20;99.90;;;;;;5071165;28;20175;0
2023/08/26 01:20:08;;;;;;;4.33;3.93;;;25.30;99.90;;;;;;5052061;28;20256;0
2023/08/26 01:22:41;;;;;;;4.50;4.10;;;25.20;99.90;;;;;;5036366;28;20239;0
2023/08/26 01:25:09;;;;;;;4.23;3.83;;;25.30;99.90;;;;;;5037084;28;20483;0
2023/08/26 01:27:38;;;;;;;4.37;3.97;;;25.30;99.90;;;;;;5035855;28;20168;0
2023/08/26 01:30:08;;;;;;;4.17;3.83;;;25.20;99.90;;;;;;5056553;28;20180;0
2023/08/26 01:32:48;;;;;;;3.80;3.50;;;25.20;99.90;;;;;;5056440;28;20479;0
2023/08/26 01:35:20;;;;;;;3.83;3.53;;;25.20;99.90;;;;;;5047370;28;20184;0
2023/08/26 01:37:48;;;;;;;4.40;4.00;;;25.30;99.90;;;;;;5036378;28;20154;0
2023/08/26 01:40:17;;;;;;;4.07;3.67;;;25.30;99.90;;;;;;5036366;28;20465;0
2023/08/26 01:42:49;;;;;;;4.17;3.77;;;25.20;99.90;;;;;;5034797;28;20177;0
2023/08/26 01:45:17;;;;;;;4.17;3.77;;;25.30;99.90;;;;;;5052615;28;20234;0
2023/08/26 01:47:45;;;;;;;4.47;4.03;;;25.20;99.90;;;;;;5071647;28;20643;0
2023/08/26 01:50:14;;;;;;;4.00;3.60;;;25.20;99.90;;;;;;5055290;28;20209;0
2023/08/26 01:52:43;;;;;;;4.00;3.60;;;25.20;99.90;;;;;;5056859;28;20181;0
2023/08/26 01:55:08;;;;;;;4.67;3.90;;;25.20;99.90;;;;;;5055388;28;20172;0
2023/08/26 01:57:34;;;;;;;4.67;3.83;;;25.20;99.90;;;;;;5056794;28;20177;0
2023/08/26 01:59:59;;;;;;;4.00;3.70;;;25.20;99.90;;;;;;5055333;28;20294;0
2023/08/26 02:02:25;;;;;;;4.20;3.90;;;25.20;99.90;;;;;;5057963;28;20558;0
2023/08/26 02:04:51;;;;;;;4.03;3.70;;;25.20;99.90;;;;;;5059810;28;20185;0
2023/08/26 02:07:20;;;;;;;4.17;3.63;;;25.20;99.90;;;;;;5060547;28;20157;0
2023/08/26 02:09:48;;;;;;;3.90;3.60;;;25.20;99.90;;;;;;5059477;28;20179;0
2023/08/26 02:12:14;;;;;;;4.30;3.90;;;25.20;99.90;;;;;;5059320;28;20333;0
2023/08/26 02:14:39;;;;;;;4.57;4.03;;;25.20;99.90;;;;;;5059777;28;20306;0
2023/08/26 02:17:09;;;;;;;3.83;3.53;;;25.20;99.90;;;;;;5059878;28;20545;0
2023/08/26 02:19:35;;;;;;;3.80;3.50;;;25.20;99.90;;;;;;5059458;28;20180;0
2023/08/26 02:22:01;;;;;;;3.77;3.40;;;25.20;99.90;;;;;;5075647;28;20179;0
2023/08/26 02:24:26;;;;;;;3.97;3.67;;;25.20;99.90;;;;;;5060082;28;20188;0
2023/08/26 02:27:00;;;;;;;4.20;3.80;;;25.20;99.90;;;;;;5059805;28;20249;0
2023/08/26 02:29:26;;;;;;;3.97;3.57;;;25.20;99.90;;;;;;5059010;28;20185;0
2023/08/26 02:31:54;;;;;;;3.60;3.30;;;25.20;99.90;;;;;;5050975;28;20658;0
2023/08/26 02:34:25;;;;;;;4.10;3.70;;;25.20;99.90;;;;;;5059684;28;20577;0
2023/08/26 02:36:55;;;;;;;3.70;3.40;;;25.20;99.90;;;;;;5059993;28;20195;0
2023/08/26 02:39:21;;;;;;;3.50;3.20;;;25.20;99.90;;;;;;5059334;28;20461;0
2023/08/26 02:41:46;;;;;;;3.90;3.50;;;25.20;99.90;;;;;;5058073;28;20191;0
2023/08/26 02:44:12;;;;;;;3.80;3.50;;;25.20;99.90;;;;;;5039303;28;20567;0
2023/08/26 02:46:38;;;;;;;3.80;3.50;;;25.20;99.90;;;;;;5039351;28;20223;0
2023/08/26 02:49:03;;;;;;;3.70;3.40;;;25.20;99.90;;;;;;5056168;28;20589;-2
2023/08/26 02:51:32;;;;;;;3.57;3.27;;;25.10;99.90;;;;;;5052028;28;20192;0
2023/08/26 02:53:58;;;;;;;3.80;3.40;;;25.10;99.90;;;;;;5041518;28;20184;0
2023/08/26 02:56:23;;;;;;;3.50;3.20;;;25.10;99.90;;;;;;5040105;28;20180;0
2023/08/26 02:58:49;;;;;;;3.60;3.30;;;25.10;99.90;;;;;;5058688;28;20180;0
2023/08/26 03:01:16;;;;;;;3.67;3.37;;;25.10;99.90;;;;;;5058909;28;20230;0
2023/08/26 03:03:42;;;;;;;3.30;3.03;;;25.10;99.90;;;;;;5059558;28;20149;0
2023/08/26 03:06:08;;;;;;;3.80;3.43;;;25.10;99.90;;;;;;5058981;28;20179;0
2023/08/26 03:08:43;;;;;;;3.47;3.17;;;25.10;99.90;;;;;;5059275;28;20171;0
2023/08/26 03:11:13;;;;;;;3.30;3.00;;;25.10;99.90;;;;;;5058308;28;20167;0
2023/08/26 03:13:41;;;;;;;3.50;3.20;;;25.00;99.90;;;;;;5057658;28;20184;0
2023/08/26 03:16:09;;;;;;;3.33;3.00;;;25.00;99.90;;;;;;5058004;28;20195;0
2023/08/26 03:18:35;;;;;;;4.40;3.40;;;25.00;99.90;;;;;;5058012;28;20278;0
2023/08/26 03:21:04;;;;;;;3.27;3.03;;;25.00;99.90;;;;;;5058581;28;20334;0
2023/08/26 03:23:30;;;;;;;3.17;2.87;;;25.00;99.90;;;;;;5058341;28;20188;0
2023/08/26 03:25:58;;;;;;;3.50;3.20;;;25.00;99.90;;;;;;5058121;28;20156;0
2023/08/26 03:28:25;;;;;;;3.50;3.20;;;25.00;99.90;;;;;;5074383;28;20233;0
2023/08/26 03:30:53;;;;;;;3.70;2.97;;;24.90;99.90;;;;;;5074310;28;20631;0
2023/08/26 03:33:35;;;;;;;3.37;3.03;;;25.00;99.90;;;;;;5074172;28;20168;0
2023/08/26 03:36:04;;;;;;;3.53;3.23;;;24.90;99.90;;;;;;5058550;28;20576;0
2023/08/26 03:38:37;;;;;;;3.23;2.93;;;25.00;99.90;;;;;;5057225;28;20261;0
2023/08/26 03:41:06;;;;;;;3.00;2.80;;;25.00;99.90;;;;;;5038739;28;20588;0
2023/08/26 03:43:32;;;;;;;3.20;2.90;;;25.00;99.90;;;;;;5037117;28;20176;0
2023/08/26 03:46:09;;;;;;;2.93;2.73;;;24.90;99.90;;;;;;5037996;28;20520;0
2023/08/26 03:48:34;;;;;;;3.03;2.80;;;24.90;99.90;;;;;;5038206;28;20168;0
2023/08/26 03:51:03;;;;;;;3.10;2.70;;;24.90;99.90;;;;;;5052813;28;20200;0
2023/08/26 03:53:32;;;;;;;3.87;2.90;;;24.90;99.90;;;;;;5058185;28;20172;0
2023/08/26 03:55:58;;;;;;;2.87;2.67;;;24.90;99.90;;;;;;5058398;28;20172;0
2023/08/26 03:58:41;;;;;;;3.00;2.77;;;24.90;99.90;;;;;;5057560;28;20263;0
2023/08/26 04:01:10;;;;;;;2.83;2.53;;;24.90;99.90;;;;;;5057095;28;20284;0
2023/08/26 04:03:35;;;;;;;3.43;2.50;;;24.90;99.90;;;;;;5057462;28;20222;0
2023/08/26 04:06:05;;;;;;;3.10;2.80;;;24.90;99.90;;;;;;5048058;28;20275;0
2023/08/26 04:08:33;;;;;;;2.90;2.70;;;24.90;99.90;;;;;;5054472;28;20200;0
2023/08/26 04:11:02;;;;;;;3.17;2.80;;;24.80;99.90;;;;;;5037626;28;20177;0
2023/08/26 04:13:29;;;;;;;2.67;2.40;;;24.80;99.90;;;;;;5052806;28;20208;0
2023/08/26 04:15:58;;;;;;;2.90;2.70;;;24.80;99.90;;;;;;5058101;28;20156;0
2023/08/26 04:18:27;;;;;;;2.73;2.53;;;24.80;99.90;;;;;;5039466;28;20177;0
2023/08/26 04:20:54;;;;;;;2.90;2.70;;;24.80;99.90;;;;;;5058220;28;20262;0
2023/08/26 04:23:20;;;;;;;2.70;2.47;;;24.80;99.90;;;;;;5057710;28;20188;0
2023/08/26 04:25:45;;;;;;;2.97;2.67;;;24.80;99.90;;;;;;5056228;28;20172;0
2023/08/26 04:28:11;;;;;;;2.60;2.40;;;24.80;99.90;;;;;;5073448;28;20577;0
2023/08/26 04:30:49;;;;;;;2.90;2.60;;;24.80;99.90;;;;;;5057084;28;20177;0
2023/08/26 04:33:19;;;;;;;2.70;2.50;;;24.70;99.90;;;;;;5056177;28;20176;0
2023/08/26 04:35:44;;;;;;;2.60;2.40;;;24.70;99.90;;;;;;5056344;28;20172;0
2023/08/26 04:38:13;;;;;;;2.60;2.40;;;24.70;99.90;;;;;;5048170;28;20177;0
2023/08/26 04:40:41;;;;;;;2.40;2.20;;;24.70;99.90;;;;;;5056632;28;20338;0
2023/08/26 04:43:10;;;;;;;2.60;2.27;;;24.70;99.90;;;;;;5057148;28;20172;0
2023/08/26 04:45:40;;;;;;;3.63;2.37;;;24.70;99.90;;;;;;5057228;28;20445;0
2023/08/26 04:48:09;;;;;;;2.70;2.50;;;24.60;99.90;;;;;;5073519;28;20171;0
2023/08/26 04:50:37;;;;;;;3.10;2.30;;;24.60;99.90;;;;;;5057516;28;20183;0
2023/08/26 04:53:06;;;;;;;2.40;2.20;;;24.70;99.90;;;;;;5057392;28;20173;0
2023/08/26 04:55:35;;;;;;;2.20;2.00;;;24.60;99.90;;;;;;5073387;28;20172;0
2023/08/26 04:58:00;;;;;;;2.40;2.10;;;24.60;99.90;;;;;;5056045;28;20203;0
2023/08/26 05:00:31;;;;;;;2.23;2.03;;;24.60;99.90;;;;;;5072134;28;20312;0
2023/08/26 05:02:56;;;;;;;2.03;1.83;;;24.60;99.90;;;;;;5057401;28;20172;0
2023/08/26 05:05:25;;;;;;;3.03;2.20;;;24.60;99.90;;;;;;5043751;28;20179;0
2023/08/26 05:07:50;;;;;;;2.90;2.30;;;24.60;99.90;;;;;;5057022;28;20164;0
2023/08/26 05:10:16;;;;;;;2.17;1.97;;;24.60;99.90;;;;;;5057021;28;20176;0
2023/08/26 05:12:53;;;;;;;3.73;2.30;;;24.60;99.90;;;;;;5073178;28;20263;0
2023/08/26 05:15:22;;;;;;;2.07;1.90;;;24.60;99.90;;;;;;5048353;28;20363;0
2023/08/26 05:17:47;;;;;;;2.27;2.07;;;24.60;99.90;;;;;;5051734;28;20185;0
2023/08/26 05:20:16;;;;;;;2.60;2.07;;;24.60;99.90;;;;;;5036913;28;20201;0
2023/08/26 05:23:09;;;;;;;2.13;1.93;;;24.60;99.90;;;;;;5056297;28;20173;0
2023/08/26 05:25:43;;;;;;;2.60;2.07;;;24.60;99.90;;;;;;5055911;28;20241;0
2023/08/26 05:28:13;;;;;;;2.37;2.17;;;24.60;99.90;;;;;;5073564;28;20180;0
2023/08/26 05:30:38;;;;;;;2.53;2.10;;;24.60;99.90;;;;;;5072801;28;20172;0
2023/08/26 05:33:12;;;;;;;2.23;2.00;;;24.60;99.90;;;;;;5056682;28;20179;0
2023/08/26 05:35:40;;;;;;;2.37;1.90;;;24.70;99.90;;;;;;5056148;28;20165;0
2023/08/26 05:38:08;;;;;;;2.10;1.90;;;24.70;99.80;;;;;;5076719;28;20168;0
2023/08/26 05:40:37;;;;;;;1.70;1.60;;;24.70;99.70;;;;;;5060727;28;20284;0
2023/08/26 05:43:17;;;;;;;2.27;2.07;;;24.70;99.60;;;;;;5076918;28;20266;0
2023/08/26 05:45:43;;;;;;;2.07;1.80;;;24.80;99.50;;;;;;5060924;28;20176;0
2023/08/26 05:48:11;;;;;;;2.10;1.77;;;24.80;99.40;;;;;;5060497;28;20183;0
2023/08/26 05:50:37;;;;;;;1.80;1.70;;;24.80;99.30;;;;;;5076253;28;20176;0
2023/08/26 05:53:04;;;;;;;3.20;1.77;;;24.80;99.10;;;;;;5060004;28;20436;0
2023/08/26 05:55:33;;;;;;;3.43;2.03;;;24.90;99.10;;;;;;5060115;28;20524;0
2023/08/26 05:57:58;;;;;;;2.63;2.10;;;24.90;99.00;;;;;;5060245;28;20181;0
2023/08/26 06:00:26;;;;;;;3.57;2.03;;;24.80;99.00;;;;;;5059490;28;20224;0
2023/08/26 06:02:53;;;;;;;3.80;2.00;;;24.70;99.10;;;;;;5059650;28;20370;0
2023/08/26 06:05:19;;;;;;;1.80;1.70;;;24.70;99.20;;;;;;5059983;28;20176;0
2023/08/26 06:07:44;;;;;;;3.03;2.10;;;24.70;99.40;;;;;;5059635;28;20259;0
2023/08/26 06:10:10;;;;;;;2.73;1.77;;;24.60;99.40;;;;;;5059562;28;20549;0
2023/08/26 06:12:41;;;;;;;2.50;1.67;;;24.60;99.40;;;;;;5058800;28;20623;0
2023/08/26 06:15:07;;;;;;;2.80;1.57;;;24.60;99.40;;;;;;5059212;28;20629;0
2023/08/26 06:17:35;;;;;;;2.73;1.50;;;24.60;99.30;;;;;;5075201;28;20690;0
2023/08/26 06:20:05;;;;;;;4.97;2.00;;;24.60;99.20;;;;;;5059075;28;20489;0
2023/08/26 06:22:35;;;;;;;1.70;1.60;;;24.60;98.80;;;;;;5059186;28;20187;0
2023/08/26 06:25:01;;;;;;;2.43;1.67;;;24.60;98.70;;;;;;5074424;28;20242;0
2023/08/26 06:27:29;;;;;;;3.13;1.97;;;24.70;98.70;;;;;;5059219;28;20212;0
2023/08/26 06:29:58;;;;;;;3.50;2.10;;;24.70;98.60;;;;;;5059710;28;20171;0
2023/08/26 06:32:24;;;;;;;3.03;1.70;;;24.70;98.20;;;;;;5056903;28;20640;0
2023/08/26 06:34:50;;;;;;;2.37;1.70;;;24.70;97.90;;;;;;5039683;28;20173;0
2023/08/26 06:37:19;;;;;;;1.53;1.43;;;24.80;97.60;;;;;;5039216;28;20231;0
2023/08/26 06:39:47;;;;;;;2.63;1.70;;;24.80;97.20;;;;;;5048272;28;20497;0
2023/08/26 06:42:20;;;;;;;3.10;1.70;;;24.90;96.90;;;;;;5059679;28;20589;0
2023/08/26 06:44:45;;;;;;;3.20;1.73;;;24.90;96.50;;;;;;5059918;28;20580;0
2023/08/26 06:47:11;;;;;;;5.53;1.60;;;25.00;96.20;;;;;;5047481;28;20173;0
2023/08/26 06:49:36;;;;;;;3.90;1.73;;;25.00;95.90;;;;;;5047595;28;20489;0
2023/08/26 06:52:05;;;;;;;3.17;1.60;;;25.10;95.90;;;;;;5075040;28;20177;0
2023/08/26 06:54:33;;;;;;;4.07;1.83;;;25.10;95.70;;;;;;5058963;28;20514;0
2023/08/26 06:56:59;;;;;;;2.90;1.70;;;25.10;95.50;;;;;;5058679;28;20173;0
2023/08/26 06:59:27;;;;;;;2.67;1.93;;;25.10;95.50;;;;;;5059102;28;20672;0
2023/08/26 07:01:55;;;;;;;4.10;1.60;;;25.20;95.40;;;;;;5058810;28;20246;0
2023/08/26 07:04:21;;;;;;;3.90;1.67;;;25.30;95.00;;;;;;5058250;28;20169;0
2023/08/26 07:06:48;;;;;;;3.33;1.73;;;25.30;94.70;;;;;;5057456;28;20322;0
2023/08/26 07:09:22;;;;;;;4.50;1.60;;;25.30;94.70;;;;;;5047495;28;20177;0
2023/08/26 07:11:50;;;;;;;2.60;1.57;;;25.40;94.40;;;;;;5054372;28;20237;0
2023/08/26 07:14:18;;;;;;;4.87;1.60;;;25.40;94.20;;;;;;5037933;28;20465;0
2023/08/26 07:16:51;;;;;;;4.37;1.57;;;25.40;93.80;;;;;;5037672;28;20183;0
2023/08/26 07:19:16;;;;;;;2.23;1.40;;;25.50;93.80;;;;;;5054408;28;20177;0
2023/08/26 07:21:57;;;;;;;2.07;1.40;;;25.50;93.60;;;;;;5046773;28;20192;0
2023/08/26 07:24:25;;;;;;;1.80;1.30;;;25.60;93.60;;;;;;5058869;28;20245;-1
2023/08/26 07:26:51;;;;;;;1.50;1.20;;;25.70;93.40;;;;;;5058623;28;20204;0
2023/08/26 07:29:16;;;;;;;2.57;1.53;;;25.80;93.20;;;;;;5050777;28;20271;0
2023/08/26 07:31:47;;;;;;;1.80;1.60;;;25.80;93.10;;;;;;5056949;28;20176;0
2023/08/26 07:34:13;;;;;;;3.00;1.40;;;25.90;92.70;;;;;;5057021;28;20176;0
2023/08/26 07:36:41;;;;;;;2.53;1.60;;;26.00;92.40;;;;;;5058208;28;20267;0
2023/08/26 07:39:10;;;;;;;1.80;1.27;;;26.10;91.90;;;;;;5057606;28;20172;0
2023/08/26 07:41:35;;;;;;;1.90;1.40;;;26.20;91.60;;;;;;5057629;28;20221;0
2023/08/26 07:44:07;;;;;;;2.08;1.40;;;26.30;91.20;;;;;;5057669;28;20172;0
2023/08/26 07:46:36;;;;;;;2.72;1.60;;;26.50;90.70;;;;;;5056845;28;20172;0
2023/08/26 07:49:05;;;;;;;2.80;1.30;;;26.70;89.70;;;;;;5055565;28;20255;0
2023/08/26 07:51:30;;;;;;;1.88;1.40;;;27.10;86.60;;;;;;5056302;28;20172;0
2023/08/26 07:54:03;;;;;;;2.30;1.38;;;27.30;84.70;;;;;;5057337;28;20237;0
2023/08/26 07:56:34;;;;;;;2.55;1.50;;;27.50;82.80;;;;;;5052809;28;20185;-1
2023/08/26 07:59:02;;;;;;;3.47;1.23;;;27.70;80.90;;;;;;5051359;28;20184;0
2023/08/26 08:01:27;;;;;;;2.42;1.40;;;27.90;79.70;;;;;;5055441;28;20196;-1
2023/08/26 08:03:56;;;;;;;2.03;1.20;;;28.10;78.20;;;;;;5056806;28;20187;-1
2023/08/26 08:06:25;;;;;;;2.25;1.45;;;28.30;77.10;;;;;;5045159;28;20177;0
2023/08/26 08:08:51;;;;;;;1.58;1.20;;;28.40;76.00;;;;;;5053494;28;20272;-1
2023/08/26 08:11:24;;;;;;;1.73;1.30;;;28.60;74.70;;;;;;5036578;28;20550;-1
2023/08/26 08:13:53;;;;;;;2.38;1.50;;;28.80;73.40;;;;;;5038427;28;20165;-1
2023/08/26 08:16:19;;;;;;;2.45;1.40;;;28.80;72.60;;;;;;5042668;28;20176;-1
2023/08/26 08:18:45;;;;;;;1.67;1.50;;;28.90;71.70;;;;;;5056134;28;20199;0
2023/08/26 08:21:13;;;;;;;2.17;1.30;;;29.10;71.10;;;;;;5055967;28;20236;-1
2023/08/26 08:23:45;;;;;;;2.53;1.58;;;29.20;70.20;;;;;;5043034;28;20617;-1
2023/08/26 08:26:11;;;;;;;2.97;1.58;;;29.30;69.40;;;;;;5055743;28;20536;-1
2023/08/26 08:28:38;;;;;;;2.35;1.50;;;29.40;68.60;;;;;;5055446;28;20577;-1
2023/08/26 08:31:03;;;;;;;1.55;1.27;;;29.50;68.10;;;;;;5055108;28;20188;-1
2023/08/26 08:33:42;;;;;;;1.60;1.33;;;29.60;67.40;;;;;;5072754;28;20172;-1
2023/08/26 08:36:07;;;;;;;1.80;1.27;;;29.60;66.70;;;;;;5057047;28;20424;-1
2023/08/26 08:38:33;;;;;;;1.88;1.48;;;29.70;66.30;;;;;;5056060;28;20168;-1
2023/08/26 08:41:02;;;;;;;2.00;1.35;;;29.80;66.00;;;;;;5055887;28;20215;-1
2023/08/26 08:43:37;;;;;;;2.92;1.50;;;29.90;65.60;;;;;;5054429;28;20169;-1
2023/08/26 08:46:03;;;;;;;2.55;1.33;;;29.90;65.10;;;;;;5071181;28;20745;-1
2023/08/26 08:48:33;;;;;;;2.47;1.20;;;29.90;64.50;;;;;;5055072;28;20169;-1
2023/08/26 08:51:00;;;;;;;1.90;1.40;;;30.00;64.20;;;;;;5055336;28;20173;-1
2023/08/26 08:53:30;;;;;;;1.85;1.38;;;30.10;63.80;;;;;;5070663;28;20172;-1
2023/08/26 08:56:00;;;;;;;1.88;1.20;;;30.10;63.40;;;;;;5055267;28;20479;-1
2023/08/26 08:58:30;;;;;;;2.03;1.60;;;30.20;63.10;;;;;;5055510;28;20275;-1
2023/08/26 09:00:59;;;;;;;2.67;1.38;;;30.20;62.80;;;;;;5054596;28;20212;-1
2023/08/26 09:03:37;;;;;;;2.63;1.40;;;30.20;62.40;;;;;;5055378;28;20221;-1
2023/08/26 09:06:03;;;;;;;2.75;1.40;;;30.10;62.30;;;;;;5066300;28;20180;-1
2023/08/26 09:08:30;;;;;;;2.28;1.30;;;30.00;62.60;;;;;;5045064;28;20183;-1
2023/08/26 09:10:58;;;;;;;2.38;1.40;;;30.10;62.30;;;;;;5070559;28;20188;-1
2023/08/26 09:13:29;;;;;;;1.75;1.40;;;30.10;62.00;;;;;;5054593;28;20180;-1
2023/08/26 09:15:55;;;;;;;1.90;1.40;;;30.20;61.80;;;;;;5055287;28;20172;-1
2023/08/26 09:18:24;;;;;;;1.90;1.17;;;30.30;61.70;;;;;;5054775;28;20226;-1
2023/08/26 09:20:53;;;;;;;1.33;1.20;;;30.30;61.40;;;;;;5038635;28;20218;-1
2023/08/26 09:23:20;;;;;;;1.40;1.20;;;29.90;61.90;;;;;;5019067;28;20200;-1
2023/08/26 09:25:56;;;;;;;1.77;1.30;;;29.60;63.60;;;;;;5052256;28;20253;-1
2023/08/26 09:28:26;;;;;;;1.70;1.27;;;29.90;62.60;;;;;;5055931;28;20164;-1
2023/08/26 09:31:03;;;;;;;1.58;1.20;;;30.10;61.70;;;;;;5054724;28;20267;-1
2023/08/26 09:33:29;;;;;;;1.70;1.25;;;30.10;61.70;;;;;;5053856;28;20180;-1
2023/08/26 09:35:55;;;;;;;1.98;1.42;;;29.90;61.70;;;;;;5051180;28;20180;-1
2023/08/26 09:38:21;;;;;;;3.53;1.35;;;29.80;62.20;;;;;;5055038;28;20207;-1
2023/08/26 09:40:47;;;;;;;2.28;1.38;;;29.60;62.30;;;;;;5055251;28;20295;-1
2023/08/26 09:43:13;;;;;;;1.63;1.20;;;29.40;62.50;;;;;;5055998;28;20238;-1
2023/08/26 09:45:39;;;;;;;2.10;1.27;;;29.30;63.20;;;;;;5056304;28;20226;-1
2023/08/26 09:48:07;;;;;;;1.88;1.20;;;29.10;63.70;;;;;;5056110;28;20185;-1
2023/08/26 09:50:39;;;;;;;2.65;1.48;;;28.80;64.10;;;;;;5053156;28;20183;-1
2023/08/26 09:53:07;;;;;;;2.05;1.50;;;28.70;64.60;;;;;;5055013;28;20168;-1
2023/08/26 09:55:33;;;;;;;1.70;1.20;;;28.50;65.20;;;;;;5054699;28;20282;-1
2023/08/26 09:57:59;;;;;;;1.65;1.20;;;28.40;65.80;;;;;;5053897;28;20281;-1
2023/08/26 10:00:27;;;;;;;2.30;1.30;;;28.40;65.80;;;;;;5053500;28;20196;-1
2023/08/26 10:03:06;;;;;;;2.38;1.30;;;28.30;66.50;;;;;;5054043;28;20554;-1
2023/08/26 10:05:37;;;;;;;1.77;1.13;;;28.20;67.00;;;;;;5055606;28;20796;-1
2023/08/26 10:08:08;;;;;;;1.17;1.08;;;28.20;67.30;;;;;;5034686;28;20156;-1
2023/08/26 10:10:49;;;;;;;2.58;1.50;;;28.10;67.40;;;;;;5034979;28;20451;-1
2023/08/26 10:13:18;;;;;;;3.20;1.20;;;28.10;67.80;;;;;;5053373;28;20223;-1
2023/08/26 10:15:48;;;;;;;1.73;1.17;;;28.00;68.00;;;;;;5053143;28;20172;-1
2023/08/26 10:18:48;;;;;;;2.58;1.10;;;28.00;68.30;;;;;;5052744;28;20177;-1
2023/08/26 10:21:20;;;;;;;1.40;1.10;;;28.10;68.20;;;;;;5051537;28;20746;-1
2023/08/26 10:23:48;;;;;;;2.03;1.10;;;28.20;67.90;;;;;;5055969;28;20164;-1
2023/08/26 10:26:14;;;;;;;2.58;1.10;;;28.10;68.20;;;;;;5057348;28;20261;-1
2023/08/26 10:28:41;;;;;;;1.48;1.23;;;28.10;68.60;;;;;;5056941;28;20505;-1
2023/08/26 10:31:14;;;;;;;3.03;1.30;;;27.90;68.70;;;;;;5057574;28;20322;-1
2023/08/26 10:34:08;;;;;;;1.52;1.10;;;28.00;68.90;;;;;;5057982;28;20199;-1
2023/08/26 10:36:42;;;;;;;2.97;1.30;;;27.80;69.40;;;;;;5058726;28;20526;-1
2023/08/26 10:39:16;;;;;;;2.55;1.20;;;27.80;69.80;;;;;;5045737;28;20208;-1
2023/08/26 10:42:14;;;;;;;1.48;1.10;;;27.70;70.30;;;;;;5053642;28;20209;-1
2023/08/26 10:44:42;;;;;;;1.25;1.15;;;27.70;70.70;;;;;;5038613;28;20165;-1
2023/08/26 10:47:14;;;;;;;1.27;1.10;;;27.60;70.90;;;;;;5054833;28;20184;-1
2023/08/26 10:49:39;;;;;;;1.80;1.27;;;27.60;71.10;;;;;;5038850;28;20149;-1
2023/08/26 10:52:29;;;;;;;1.83;1.00;;;27.70;71.30;;;;;;5058475;28;20259;-1
2023/08/26 10:54:55;;;;;;;1.63;0.98;;;27.60;71.30;;;;;;5058275;28;20173;0
2023/08/26 10:57:20;;;;;;;3.13;1.40;;;27.80;71.20;;;;;;5058141;28;20176;-1
2023/08/26 10:59:47;;;;;;;1.60;1.20;;;27.70;71.30;;;;;;5058540;28;20561;-1
2023/08/26 11:02:13;;;;;;;2.35;1.30;;;27.60;71.20;;;;;;5051702;28;20184;0
2023/08/26 11:04:43;;;;;;;2.72;1.20;;;27.60;71.40;;;;;;5049640;28;20574;0
2023/08/26 11:07:21;;;;;;;2.40;1.10;;;27.50;71.30;;;;;;5058105;28;20187;0
2023/08/26 11:09:50;;;;;;;1.73;1.30;;;27.50;71.00;;;;;;5057798;28;20199;0
2023/08/26 11:12:26;;;;;;;1.45;1.02;;;27.40;71.50;;;;;;5050187;28;20177;0
2023/08/26 11:15:06;;;;;;;1.10;1.00;;;27.40;72.00;;;;;;5044164;28;20183;0
2023/08/26 11:17:32;;;;;;;2.35;1.30;;;27.20;72.40;;;;;;5055069;28;20182;-1
2023/08/26 11:19:58;;;;;;;1.35;1.10;;;27.30;72.40;;;;;;5057986;28;20168;0
2023/08/26 11:22:26;;;;;;;2.53;1.15;;;27.40;72.40;;;;;;5058248;28;20161;0
2023/08/26 11:24:55;;;;;;;2.75;1.17;;;27.40;72.20;;;;;;5056618;28;20192;0
2023/08/26 11:27:21;;;;;;;2.90;1.20;;;27.40;72.30;;;;;;5049099;28;20755;0
2023/08/26 11:29:46;;;;;;;1.58;1.10;;;27.20;72.70;;;;;;5057328;28;20211;0
2023/08/26 11:32:15;;;;;;;2.08;1.10;;;27.20;72.90;;;;;;5044856;28;20609;0
2023/08/26 11:34:43;;;;;;;2.60;1.00;;;27.30;72.80;;;;;;5048332;28;20173;0
2023/08/26 11:37:09;;;;;;;2.35;1.25;;;27.30;73.00;;;;;;5050525;28;20214;0
2023/08/26 11:39:35;;;;;;;1.23;1.00;;;27.30;73.10;;;;;;5056423;28;20168;0
2023/08/26 11:42:27;;;;;;;1.77;1.10;;;27.30;72.90;;;;;;5056684;28;20204;0
2023/08/26 11:44:55;;;;;;;2.60;1.00;;;27.20;73.30;;;;;;5051468;28;20180;0
2023/08/26 11:47:23;;;;;;;1.05;0.95;;;27.10;73.40;;;;;;5056572;28;20172;0
2023/08/26 11:49:48;;;;;;;1.25;1.05;;;27.30;73.60;;;;;;5072812;28;20333;0
2023/08/26 11:52:18;;;;;;;1.50;1.00;;;27.30;73.30;;;;;;5044054;28;20284;0
2023/08/26 11:54:43;;;;;;;2.03;1.05;;;27.30;73.30;;;;;;5042665;28;20195;0
2023/08/26 11:57:14;;;;;;;1.73;0.90;;;27.30;73.40;;;;;;5035759;28;20665;0
2023/08/26 11:59:43;;;;;;;1.90;1.00;;;27.30;73.10;;;;;;5044168;28;20160;0
2023/08/26 12:02:20;;;;;;;1.20;1.10;;;27.30;73.50;;;;;;5056054;28;20168;0
2023/08/26 12:04:46;;;;;;;1.30;1.10;;;27.20;73.40;;;;;;5056196;28;20171;0
2023/08/26 12:07:11;;;;;;;3.42;1.17;;;27.10;73.60;;;;;;5052278;28;20463;0
2023/08/26 12:09:37;;;;;;;1.23;1.00;;;27.00;73.90;;;;;;5052407;28;20443;0
2023/08/26 12:12:05;;;;;;;1.43;1.10;;;27.00;74.30;;;;;;5045740;28;20267;0
2023/08/26 12:14:31;;;;;;;1.02;0.88;;;26.90;74.70;;;;;;5044527;28;20447;0
2023/08/26 12:17:04;;;;;;;1.15;0.90;;;27.10;74.60;;;;;;5054560;28;20184;0
2023/08/26 12:19:31;;;;;;;1.20;1.00;;;27.10;74.60;;;;;;5053313;28;20390;0
2023/08/26 12:21:59;;;;;;;3.55;1.23;;;27.00;74.60;;;;;;5046509;28;20208;-1
2023/08/26 12:24:25;;;;;;;1.00;0.90;;;26.90;74.80;;;;;;5047377;28;20548;-1
2023/08/26 12:26:51;;;;;;;1.37;0.90;;;27.00;74.80;;;;;;5054844;28;20670;0
2023/08/26 12:29:17;;;;;;;1.80;0.90;;;26.90;74.90;;;;;;5054615;28;20231;0
2023/08/26 12:31:43;;;;;;;1.10;1.00;;;26.80;74.50;;;;;;5053553;28;20265;0
2023/08/26 12:34:09;;;;;;;1.43;1.03;;;26.80;74.30;;;;;;5055221;28;20160;-1
2023/08/26 12:36:49;;;;;;;1.47;1.00;;;26.70;74.40;;;;;;5071110;28;20569;0
2023/08/26 12:39:15;;;;;;;1.20;1.10;;;26.80;74.20;;;;;;5042352;28;20172;0
2023/08/26 12:41:41;;;;;;;1.10;1.00;;;26.70;74.20;;;;;;5056375;28;20190;0
2023/08/26 12:44:09;;;;;;;1.63;1.10;;;26.80;74.40;;;;;;5056367;28;20164;0
2023/08/26 12:46:38;;;;;;;1.20;1.10;;;26.80;74.00;;;;;;5058800;28;20190;0
2023/08/26 12:49:06;;;;;;;1.30;0.90;;;26.80;74.10;;;;;;5055661;28;20467;0
2023/08/26 12:51:34;;;;;;;2.50;1.10;;;26.80;74.00;;;;;;5069731;28;20186;0
2023/08/26 12:54:04;;;;;;;1.33;1.07;;;26.70;74.10;;;;;;5059527;28;20250;0
2023/08/26 12:56:33;;;;;;;1.30;1.00;;;26.80;73.80;;;;;;5043963;28;20187;0
2023/08/26 12:58:58;;;;;;;1.43;0.90;;;26.80;74.20;;;;;;5073966;28;20183;0
2023/08/26 13:01:24;;;;;;;1.60;1.10;;;26.70;74.20;;;;;;5052762;28;20217;0
2023/08/26 13:03:50;;;;;;;1.73;0.90;;;26.70;74.40;;;;;;5061907;28;20285;0
2023/08/26 13:06:16;;;;;;;1.60;1.00;;;26.70;74.40;;;;;;5055373;28;20624;0
2023/08/26 13:08:41;;;;;;;2.03;1.00;;;26.80;74.50;;;;;;5055417;28;20176;0
2023/08/26 13:11:07;;;;;;;1.70;1.10;;;26.80;74.20;;;;;;5054553;28;20507;0
2023/08/26 13:13:32;;;;;;;2.40;1.00;;;26.80;74.20;;;;;;5055326;28;20712;0